createdAt,value
2022-11-06T00:02:19.237Z,2.83
2022-11-06T00:04:50.095Z,2.53
2022-11-06T00:07:17.610Z,3.33
2022-11-06T00:09:46.206Z,2.90
2022-11-06T00:12:16.078Z,2.90
2022-11-06T00:14:47.307Z,2.75
2022-11-06T00:17:18.501Z,3.40
2022-11-06T00:19:53.363Z,2.58
2022-11-06T00:22:22.085Z,3.17
2022-11-06T00:24:54.072Z,2.55
2022-11-06T00:27:22.458Z,2.92
2022-11-06T00:29:55.124Z,2.92
2022-11-06T00:32:25.185Z,3.17
2022-11-06T00:34:53.833Z,3.38
2022-11-06T00:37:22.532Z,2.72
2022-11-06T00:39:51.108Z,2.53
2022-11-06T00:42:19.624Z,2.40
2022-11-06T00:44:54.035Z,3.15
2022-11-06T00:47:22.592Z,4.72
2022-11-06T00:49:52.460Z,3.20
2022-11-06T00:52:24.209Z,2.58
2022-11-06T00:54:52.721Z,4.40
2022-11-06T00:57:26.269Z,2.80
2022-11-06T00:59:54.710Z,3.08
2022-11-06T01:02:23.327Z,4.00
2022-11-06T01:04:55.838Z,2.85
2022-11-06T01:10:14.043Z,2.60
2022-11-06T01:12:44.752Z,3.40
2022-11-06T01:15:15.907Z,5.50
2022-11-06T01:17:44.357Z,2.92
2022-11-06T01:20:14.903Z,2.90
2022-11-06T01:22:43.728Z,2.70
2022-11-06T01:25:12.389Z,3.08
2022-11-06T01:27:43.771Z,3.25
2022-11-06T01:30:13.617Z,2.78
2022-11-06T01:32:42.246Z,2.60
2022-11-06T01:35:13.445Z,2.50
2022-11-06T01:37:44.106Z,2.83
2022-11-06T01:40:13.188Z,3.08
2022-11-06T01:42:41.709Z,2.58
2022-11-06T01:45:27.682Z,2.88
2022-11-06T01:48:08.266Z,2.90
2022-11-06T01:50:38.725Z,2.53
2022-11-06T01:53:11.007Z,3.40
2022-11-06T01:55:45.473Z,2.67
2022-11-06T01:58:18.277Z,2.67
2022-11-06T02:00:47.758Z,3.20
2022-11-06T02:03:17.166Z,6.82
2022-11-06T02:05:46.351Z,3.13
2022-11-06T02:08:20.903Z,4.40
2022-11-06T02:10:50.290Z,2.38
2022-11-06T02:13:28.728Z,3.75
2022-11-06T02:16:09.646Z,3.45
2022-11-06T02:18:59.374Z,2.65
2022-11-06T02:21:48.462Z,2.42
2022-11-06T02:24:45.559Z,2.58
2022-11-06T02:27:18.761Z,2.53
2022-11-06T02:30:06.171Z,2.85
2022-11-06T02:32:42.664Z,2.78
2022-11-06T02:35:19.502Z,2.70
2022-11-06T02:37:50.358Z,3.17
2022-11-06T02:40:20.201Z,3.17
2022-11-06T02:42:55.649Z,2.83
2022-11-06T02:45:26.462Z,4.07
2022-11-06T02:47:57.708Z,3.42
2022-11-06T02:50:32.572Z,2.53
2022-11-06T02:53:06.084Z,2.65
2022-11-06T02:55:40.176Z,2.42
2022-11-06T02:58:16.721Z,10.35
2022-11-06T03:00:51.807Z,2.90
2022-11-06T03:03:27.710Z,3.30
2022-11-06T03:06:04.549Z,4.22
2022-11-06T03:08:58.721Z,5.13
2022-11-06T03:11:37.880Z,5.57
2022-11-06T03:14:19.814Z,4.28
2022-11-06T03:16:57.253Z,5.40
2022-11-06T03:19:43.033Z,3.35
2022-11-06T03:22:14.942Z,2.83
2022-11-06T03:24:51.031Z,8.38
2022-11-06T03:27:25.549Z,4.15
2022-11-06T03:30:06.630Z,3.47
2022-11-06T03:32:38.680Z,3.95
2022-11-06T03:35:16.117Z,2.10
2022-11-06T03:37:52.503Z,5.20
2022-11-06T03:40:24.557Z,4.10
2022-11-06T03:42:57.369Z,3.30
2022-11-06T03:45:28.790Z,2.83
2022-11-06T03:48:07.197Z,6.53
2022-11-06T03:50:57.770Z,3.83
2022-11-06T03:53:32.045Z,3.22
2022-11-06T03:56:06.487Z,2.28
2022-11-06T03:58:44.318Z,4.75
2022-11-06T04:01:20.535Z,2.13
2022-11-06T04:03:59.081Z,2.38
2022-11-06T04:06:31.742Z,8.50
2022-11-06T04:09:22.323Z,1.60
2022-11-06T04:12:06.112Z,2.83
2022-11-06T04:14:37.673Z,2.00
2022-11-06T04:17:12.316Z,3.25
2022-11-06T04:19:48.229Z,2.17
2022-11-06T04:22:42.446Z,3.30
2022-11-06T04:25:43.937Z,2.10
2022-11-06T04:28:31.751Z,2.05
2022-11-06T04:31:14.774Z,4.07
2022-11-06T04:33:56.276Z,2.28
2022-11-06T04:36:33.347Z,1.95
2022-11-06T04:39:09.934Z,1.90
2022-11-06T04:41:48.239Z,1.92
2022-11-06T04:44:31.057Z,2.45
2022-11-06T04:47:14.592Z,1.65
2022-11-06T04:49:49.272Z,4.45
2022-11-06T04:52:22.803Z,1.70
2022-11-06T04:54:55.011Z,2.28
2022-11-06T04:57:28.346Z,1.83
2022-11-06T04:59:57.298Z,1.88
2022-11-06T05:02:26.446Z,1.83
2022-11-06T05:05:04.985Z,2.53
2022-11-06T05:07:33.852Z,1.75
2022-11-06T05:10:07.011Z,1.90
2022-11-06T05:12:35.561Z,2.90
2022-11-06T05:15:22.099Z,1.77
2022-11-06T05:17:50.920Z,2.30
2022-11-06T05:20:21.886Z,1.98
2022-11-06T05:23:01.203Z,1.70
2022-11-06T05:25:33.909Z,1.50
2022-11-06T05:28:05.173Z,2.50
2022-11-06T05:30:39.723Z,2.10
2022-11-06T05:33:08.539Z,2.55
2022-11-06T05:35:45.625Z,1.63
2022-11-06T05:38:19.275Z,1.65
2022-11-06T05:40:53.865Z,1.38
2022-11-06T05:43:22.503Z,2.17
2022-11-06T05:45:57.592Z,2.03
2022-11-06T05:48:30.049Z,1.40
2022-11-06T05:51:05.309Z,1.63
2022-11-06T05:53:38.132Z,3.28
2022-11-06T05:56:07.450Z,1.80
2022-11-06T05:58:36.164Z,1.40
2022-11-06T06:01:05.319Z,1.45
2022-11-06T06:03:34.161Z,1.42
2022-11-06T06:06:10.174Z,2.80
2022-11-06T06:08:44.387Z,1.67
2022-11-06T06:11:14.099Z,1.77
2022-11-06T06:13:45.465Z,1.75
2022-11-06T06:16:19.901Z,3.33
2022-11-06T06:18:51.233Z,1.70
2022-11-06T06:21:21.083Z,1.30
2022-11-06T06:23:50.580Z,2.75
2022-11-06T06:26:22.276Z,1.60
2022-11-06T06:28:53.287Z,1.95
2022-11-06T06:31:32.621Z,1.88
2022-11-06T06:34:02.499Z,1.42
2022-11-06T06:36:32.443Z,2.60
2022-11-06T06:39:01.050Z,3.67
2022-11-06T06:41:33.355Z,1.92
2022-11-06T06:46:47.753Z,2.22
2022-11-06T06:49:22.305Z,2.05
2022-11-06T06:51:52.372Z,3.30
2022-11-06T06:54:23.846Z,2.72
2022-11-06T06:56:54.118Z,1.77
2022-11-06T06:59:22.927Z,3.30
2022-11-06T07:01:51.512Z,2.20
2022-11-06T07:04:20.522Z,1.60
2022-11-06T07:06:54.246Z,1.40
2022-11-06T07:09:25.947Z,1.50
2022-11-06T07:11:59.643Z,1.30
2022-11-06T07:14:28.071Z,2.00
2022-11-06T07:16:56.401Z,1.50
2022-11-06T07:19:24.875Z,1.40
2022-11-06T07:21:56.633Z,1.48
2022-11-06T07:24:25.038Z,1.70
2022-11-06T07:26:53.731Z,1.25
2022-11-06T07:29:34.646Z,2.22
2022-11-06T07:32:03.305Z,1.20
2022-11-06T07:34:38.956Z,2.05
2022-11-06T07:37:09.275Z,1.00
2022-11-06T07:39:48.252Z,1.08
2022-11-06T07:42:16.739Z,1.20
2022-11-06T07:45:01.403Z,2.15
2022-11-06T07:47:32.210Z,2.50
2022-11-06T07:50:09.881Z,1.50
2022-11-06T07:52:44.463Z,1.40
2022-11-06T07:55:13.178Z,2.20
2022-11-06T07:57:45.910Z,1.33
2022-11-06T08:00:17.328Z,1.33
2022-11-06T08:02:48.642Z,1.30
2022-11-06T08:05:17.014Z,1.95
2022-11-06T08:07:48.298Z,1.27
2022-11-06T08:10:16.921Z,1.30
2022-11-06T08:12:45.336Z,1.30
2022-11-06T08:15:15.808Z,1.20
2022-11-06T08:17:46.171Z,1.20
2022-11-06T08:20:14.669Z,3.13
2022-11-06T08:22:43.018Z,1.20
2022-11-06T08:25:13.069Z,1.08
2022-11-06T08:27:41.681Z,1.30
2022-11-06T08:30:12.514Z,1.05
2022-11-06T08:32:41.813Z,1.25
2022-11-06T08:35:10.914Z,1.30
2022-11-06T08:37:39.142Z,1.40
2022-11-06T08:40:08.938Z,2.33
2022-11-06T08:42:38.725Z,1.23
2022-11-06T08:45:08.162Z,1.25
2022-11-06T08:47:38.913Z,2.15
2022-11-06T08:50:12.699Z,1.30
2022-11-06T08:52:45.189Z,1.30
2022-11-06T08:55:13.717Z,1.60
2022-11-06T08:57:43.618Z,1.10
2022-11-06T09:00:17.063Z,1.65
2022-11-06T09:02:45.351Z,1.50
2022-11-06T09:05:13.712Z,1.65
2022-11-06T09:07:51.476Z,1.20
2022-11-06T09:10:20.051Z,2.13
2022-11-06T09:12:52.324Z,1.15
2022-11-06T09:15:21.236Z,1.27
2022-11-06T09:17:52.842Z,1.52
2022-11-06T09:20:26.693Z,1.20
2022-11-06T09:22:56.657Z,1.50
2022-11-06T09:25:29.099Z,1.02
2022-11-06T09:27:59.902Z,1.05
2022-11-06T09:30:30.090Z,1.38
2022-11-06T09:33:00.055Z,1.35
2022-11-06T09:35:30.012Z,1.92
2022-11-06T09:38:03.416Z,4.43
2022-11-06T09:40:35.225Z,6.15
2022-11-06T09:44:02.771Z,6.82
2022-11-06T09:46:30.090Z,5.47
2022-11-06T09:49:25.154Z,11.77
2022-11-06T09:52:00.375Z,8.60
2022-11-06T09:54:35.297Z,14.02
2022-11-06T09:57:20.750Z,12.40
2022-11-06T09:59:54.580Z,18.45
2022-11-06T10:02:35.017Z,15.38
2022-11-06T10:05:10.390Z,22.95
2022-11-06T10:07:52.641Z,22.33
2022-11-06T10:10:34.984Z,22.25
2022-11-06T10:13:20.528Z,22.80
2022-11-06T10:16:01.987Z,20.27
2022-11-06T10:18:57.556Z,20.08
2022-11-06T10:21:45.445Z,27.50
2022-11-06T10:24:22.768Z,18.65
2022-11-06T10:26:56.014Z,19.10
2022-11-06T10:29:44.525Z,18.30
2022-11-06T10:32:35.395Z,17.73
2022-11-06T10:35:08.740Z,17.42
2022-11-06T10:37:49.866Z,20.42
2022-11-06T10:40:30.028Z,14.80
2022-11-06T10:43:07.749Z,18.83
2022-11-06T10:45:45.125Z,15.43
2022-11-06T10:48:29.884Z,15.18
2022-11-06T10:51:23.286Z,15.23
2022-11-06T10:54:04.989Z,14.25
2022-11-06T10:56:43.926Z,12.88
2022-11-06T10:59:28.021Z,11.50
2022-11-06T11:01:57.085Z,9.77
2022-11-06T11:04:27.149Z,12.43
2022-11-06T11:06:55.857Z,11.30
2022-11-06T11:09:36.863Z,11.77
2022-11-06T11:12:06.832Z,10.50
2022-11-06T11:14:36.955Z,11.10
2022-11-06T11:17:21.543Z,8.95
2022-11-06T11:19:55.472Z,11.02
2022-11-06T11:22:28.908Z,9.02
2022-11-06T11:25:03.277Z,6.78
2022-11-06T11:27:36.040Z,6.47
2022-11-06T11:30:23.428Z,9.45
2022-11-06T11:32:57.099Z,7.20
2022-11-06T11:35:35.352Z,4.93
2022-11-06T11:38:16.292Z,8.35
2022-11-06T11:40:45.519Z,5.88
2022-11-06T11:43:23.414Z,6.45
2022-11-06T11:46:22.463Z,10.07
2022-11-06T11:48:52.470Z,6.32
2022-11-06T11:51:41.721Z,9.07
2022-11-06T11:54:21.033Z,7.78
2022-11-06T11:57:08.786Z,6.53
2022-11-06T11:59:49.040Z,4.80
2022-11-06T12:02:28.434Z,3.70
2022-11-06T12:05:01.754Z,7.18
2022-11-06T12:07:36.394Z,6.07
2022-11-06T12:10:22.509Z,5.65
2022-11-06T12:12:52.537Z,2.83
2022-11-06T12:15:23.418Z,3.78
2022-11-06T12:17:55.738Z,5.00
2022-11-06T12:20:41.746Z,5.47
2022-11-06T12:23:17.538Z,5.05
2022-11-06T12:25:52.714Z,3.83
2022-11-06T12:28:23.824Z,4.25
2022-11-06T12:31:07.154Z,4.43
2022-11-06T12:34:05.014Z,5.07
2022-11-06T12:36:30.266Z,7.22
2022-11-06T12:39:05.214Z,2.65
2022-11-06T12:41:36.681Z,3.50
2022-11-06T12:44:05.217Z,4.15
2022-11-06T12:46:46.129Z,2.25
2022-11-06T12:49:29.322Z,4.10
2022-11-06T12:52:13.726Z,3.25
2022-11-06T12:54:55.657Z,3.90
2022-11-06T12:57:36.376Z,5.30
2022-11-06T13:00:11.242Z,3.03
2022-11-06T13:03:04.644Z,2.40
2022-11-06T13:06:05.965Z,2.25
2022-11-06T13:08:42.620Z,3.95
2022-11-06T13:11:24.667Z,2.10
2022-11-06T13:14:15.632Z,1.70
2022-11-06T13:17:00.881Z,3.47
2022-11-06T13:19:34.552Z,3.70
2022-11-06T13:22:27.512Z,2.17
2022-11-06T13:25:06.663Z,2.58
2022-11-06T13:27:45.245Z,3.83
2022-11-06T13:30:17.451Z,2.55
2022-11-06T13:33:06.307Z,3.60
2022-11-06T13:35:38.579Z,5.30
2022-11-06T13:38:16.438Z,2.05
2022-11-06T13:40:50.543Z,3.78
2022-11-06T13:43:22.902Z,3.13
2022-11-06T13:45:59.446Z,2.60
2022-11-06T13:48:44.539Z,4.60
2022-11-06T13:51:23.122Z,2.97
2022-11-06T13:54:00.213Z,4.40
2022-11-06T13:56:54.359Z,1.75
2022-11-06T13:59:55.794Z,2.65
2022-11-06T14:02:52.637Z,2.28
2022-11-06T14:05:47.637Z,2.20
2022-11-06T14:08:25.070Z,1.60
2022-11-06T14:11:01.738Z,2.10
2022-11-06T14:13:38.856Z,2.53
2022-11-06T14:16:33.361Z,1.88
2022-11-06T14:19:11.864Z,2.00
2022-11-06T14:21:50.510Z,2.53
2022-11-06T14:24:40.470Z,1.65
2022-11-06T14:27:15.418Z,1.40
2022-11-06T14:29:56.983Z,1.50
2022-11-06T14:32:44.745Z,1.45
2022-11-06T14:35:51.851Z,2.17
2022-11-06T14:38:41.570Z,1.90
2022-11-06T14:41:53.839Z,1.55
2022-11-06T14:44:45.087Z,1.30
2022-11-06T14:47:31.179Z,2.42
2022-11-06T14:50:04.209Z,1.50
2022-11-06T14:52:53.268Z,1.90
2022-11-06T14:55:45.739Z,2.47
2022-11-06T14:58:23.576Z,1.70
2022-11-06T15:00:56.495Z,1.90
2022-11-06T15:03:33.702Z,1.42
2022-11-06T15:06:14.081Z,1.50
2022-11-06T15:09:01.813Z,1.50
2022-11-06T15:11:56.690Z,2.08
2022-11-06T15:14:59.318Z,1.30
2022-11-06T15:17:37.523Z,1.48
2022-11-06T15:20:33.268Z,1.42
2022-11-06T15:23:23.586Z,1.60
2022-11-06T15:26:19.766Z,1.58
2022-11-06T15:29:04.027Z,1.10
2022-11-06T15:31:39.944Z,1.60
2022-11-06T15:34:21.109Z,1.50
2022-11-06T15:36:57.760Z,1.63
2022-11-06T15:39:49.149Z,1.35
2022-11-06T15:42:22.861Z,1.77
2022-11-06T15:44:54.427Z,2.08
2022-11-06T15:47:31.653Z,1.58
2022-11-06T15:50:17.293Z,1.50
2022-11-06T15:52:49.122Z,1.63
2022-11-06T15:55:27.482Z,1.45
2022-11-06T15:58:06.188Z,1.50
2022-11-06T16:00:41.541Z,1.38
2022-11-06T16:03:14.765Z,1.70
2022-11-06T16:05:44.305Z,1.30
2022-11-06T16:08:14.768Z,1.70
2022-11-06T16:10:48.253Z,1.90
2022-11-06T16:13:19.469Z,1.40
2022-11-06T16:15:50.426Z,1.52
2022-11-06T16:18:26.184Z,1.55
2022-11-06T16:21:00.638Z,1.38
2022-11-06T16:23:38.815Z,1.60
2022-11-06T16:26:11.737Z,1.50
2022-11-06T16:28:45.064Z,1.40
2022-11-06T16:31:25.368Z,1.38
2022-11-06T16:33:57.182Z,1.83
2022-11-06T16:36:26.633Z,1.60
2022-11-06T16:38:55.894Z,1.60
2022-11-06T16:44:50.034Z,1.65
2022-11-06T16:47:21.717Z,2.13
2022-11-06T16:49:54.733Z,2.88
2022-11-06T16:52:31.476Z,1.67
2022-11-06T16:55:05.148Z,2.45
2022-11-06T16:57:38.460Z,1.58
2022-11-06T17:00:08.929Z,2.85
2022-11-06T17:02:39.559Z,1.70
2022-11-06T17:05:19.052Z,1.52
2022-11-06T17:08:09.932Z,2.00
2022-11-06T17:10:41.013Z,1.55
2022-11-06T17:13:21.732Z,1.92
2022-11-06T17:15:58.010Z,3.10
2022-11-06T17:18:35.330Z,2.08
2022-11-06T17:21:14.159Z,1.70
2022-11-06T17:23:49.267Z,1.50
2022-11-06T17:26:24.370Z,3.88
2022-11-06T17:29:03.695Z,3.13
2022-11-06T17:31:37.406Z,1.63
2022-11-06T17:34:06.074Z,2.42
2022-11-06T17:36:36.966Z,2.17
2022-11-06T17:39:05.897Z,2.47
2022-11-06T17:41:42.055Z,2.17
2022-11-06T17:44:13.298Z,1.80
2022-11-06T17:46:44.529Z,2.42
2022-11-06T17:49:18.459Z,2.10
2022-11-06T17:51:53.279Z,2.25
2022-11-06T17:54:23.645Z,2.00
2022-11-06T17:56:56.723Z,6.38
2022-11-06T17:59:29.734Z,3.17
2022-11-06T18:02:01.388Z,1.75
2022-11-06T18:04:31.575Z,2.13
2022-11-06T18:07:03.755Z,3.83
2022-11-06T18:09:32.364Z,4.63
2022-11-06T18:12:00.878Z,2.97
2022-11-06T18:14:30.994Z,3.05
2022-11-06T18:17:01.754Z,2.97
2022-11-06T18:19:30.293Z,3.75
2022-11-06T18:22:06.317Z,2.30
2022-11-06T18:24:37.325Z,3.88
2022-11-06T18:27:07.612Z,2.65
2022-11-06T18:29:37.517Z,4.47
2022-11-06T18:32:06.442Z,2.60
2022-11-06T18:34:35.089Z,2.28
2022-11-06T18:37:08.970Z,2.63
2022-11-06T18:39:39.951Z,2.20
2022-11-06T18:42:16.469Z,3.65
2022-11-06T18:44:46.515Z,3.13
2022-11-06T18:47:17.199Z,2.65
2022-11-06T18:49:50.329Z,3.20
2022-11-06T18:52:44.386Z,3.00
2022-11-06T18:55:12.870Z,3.17
2022-11-06T18:57:48.892Z,5.13
2022-11-06T19:00:33.081Z,3.60
2022-11-06T19:03:04.810Z,3.83
2022-11-06T19:05:36.976Z,2.70
2022-11-06T19:08:08.520Z,2.83
2022-11-06T19:10:43.029Z,3.65
2022-11-06T19:13:17.407Z,4.05
2022-11-06T19:15:50.844Z,4.55
2022-11-06T19:18:19.427Z,5.20
2022-11-06T19:20:53.747Z,4.25
2022-11-06T19:23:22.124Z,3.55
2022-11-06T19:25:54.549Z,3.40
2022-11-06T19:28:35.885Z,5.32
2022-11-06T19:31:08.781Z,5.00
2022-11-06T19:33:37.507Z,4.10
2022-11-06T19:36:06.796Z,5.20
2022-11-06T19:38:38.397Z,3.95
2022-11-06T19:41:07.628Z,3.30
2022-11-06T19:43:39.771Z,4.60
2022-11-06T19:46:09.670Z,3.47
2022-11-06T19:48:47.071Z,3.35
2022-11-06T19:51:17.311Z,3.80
2022-11-06T19:53:45.824Z,3.97
2022-11-06T19:56:20.627Z,4.20
2022-11-06T19:58:50.204Z,3.67
2022-11-06T20:01:21.213Z,6.25
2022-11-06T20:03:49.692Z,3.45
2022-11-06T20:06:18.533Z,3.90
2022-11-06T20:08:50.387Z,3.90
2022-11-06T20:11:23.394Z,3.40
2022-11-06T20:13:57.481Z,3.38
2022-11-06T20:16:28.054Z,4.20
2022-11-06T20:18:58.876Z,4.90
2022-11-06T20:21:29.383Z,4.95
2022-11-06T20:23:58.256Z,4.03
2022-11-06T20:26:26.797Z,4.60
2022-11-06T20:28:55.264Z,3.88
2022-11-06T20:31:25.608Z,5.07
2022-11-06T20:33:57.727Z,4.32
2022-11-06T20:36:28.089Z,3.80
2022-11-06T20:38:58.382Z,4.30
2022-11-06T20:41:28.514Z,4.20
2022-11-06T20:43:57.681Z,4.97
2022-11-06T20:46:26.518Z,3.70
2022-11-06T20:48:57.927Z,4.68
2022-11-06T20:51:29.472Z,4.43
2022-11-06T20:53:58.685Z,4.78
2022-11-06T20:56:27.514Z,3.90
2022-11-06T20:58:56.799Z,5.00
2022-11-06T21:01:27.527Z,4.72
2022-11-06T21:03:58.463Z,4.85
2022-11-06T21:06:27.931Z,3.97
2022-11-06T21:08:57.080Z,3.95
2022-11-06T21:11:27.715Z,3.72
2022-11-06T21:13:58.722Z,4.38
2022-11-06T21:16:29.340Z,4.40
2022-11-06T21:19:01.034Z,3.50
2022-11-06T21:21:33.080Z,3.92
2022-11-06T21:24:02.791Z,4.05
2022-11-06T21:26:34.952Z,4.07
2022-11-06T21:29:08.366Z,3.75
2022-11-06T21:31:45.617Z,4.03
2022-11-06T21:34:20.875Z,3.05
2022-11-06T21:36:49.968Z,3.05
2022-11-06T21:39:21.387Z,4.28
2022-11-06T21:41:51.765Z,4.30
2022-11-06T21:44:20.176Z,4.18
2022-11-06T21:46:48.818Z,5.35
2022-11-06T21:49:21.603Z,3.80
2022-11-06T21:51:51.043Z,4.15
2022-11-06T21:54:36.921Z,3.22
2022-11-06T21:57:05.371Z,3.65
2022-11-06T21:59:40.480Z,3.15
2022-11-06T22:02:13.955Z,3.22
2022-11-06T22:04:43.837Z,4.60
2022-11-06T22:07:12.179Z,3.20
2022-11-06T22:09:40.512Z,4.88
2022-11-06T22:12:11.831Z,3.90
2022-11-06T22:14:40.510Z,2.72
2022-11-06T22:17:09.125Z,3.83
2022-11-06T22:19:40.853Z,3.95
2022-11-06T22:22:13.320Z,4.65
2022-11-06T22:24:43.910Z,2.83
2022-11-06T22:27:15.686Z,2.80
2022-11-06T22:29:44.099Z,3.05
2022-11-06T22:32:12.663Z,2.53
2022-11-06T22:34:41.124Z,4.15
2022-11-06T22:37:10.798Z,2.60
2022-11-06T22:39:40.950Z,3.40
2022-11-06T22:42:09.763Z,2.63
2022-11-06T22:44:38.333Z,3.55
2022-11-06T22:47:07.023Z,2.47
2022-11-06T22:49:36.815Z,2.50
2022-11-06T22:52:06.049Z,3.03
2022-11-06T22:54:34.636Z,2.58
2022-11-06T22:57:04.524Z,2.42
2022-11-06T22:59:34.161Z,2.95
2022-11-06T23:02:02.596Z,2.55
2022-11-06T23:04:31.021Z,3.15
2022-11-06T23:06:59.300Z,2.85
2022-11-06T23:09:27.711Z,2.10
2022-11-06T23:11:56.102Z,2.08
2022-11-06T23:14:25.769Z,1.60
2022-11-06T23:17:00.913Z,1.80
2022-11-06T23:19:30.899Z,2.13
2022-11-06T23:22:18.746Z,1.90
2022-11-06T23:24:47.409Z,1.70
2022-11-06T23:27:18.468Z,2.03
2022-11-06T23:29:48.563Z,2.53
2022-11-06T23:32:18.933Z,1.77
2022-11-06T23:34:47.247Z,1.73
2022-11-06T23:37:24.494Z,1.60
2022-11-06T23:39:53.204Z,1.90
2022-11-06T23:42:25.894Z,1.55
2022-11-06T23:45:12.911Z,2.00
2022-11-06T23:47:41.479Z,1.73
2022-11-06T23:50:10.570Z,2.55
2022-11-06T23:52:38.976Z,1.55
2022-11-06T23:55:08.197Z,2.08
2022-11-06T23:57:36.597Z,1.52
